South Bend, Indiana
Current Conditions -  °F | °C
As of 10:54 PM on Thursday 27 Nov 2014 (Local Time) from KSBN Reporting Station
Overcast Overcast  
Wind Chill: 12°   Ceiling: 4200
Heat Index: 23°   Visibility: 10mi
Dew Point: 14°   Wind: 10mph
Humidity: 68%   Direction: 250°WSW
Pressure: 30.36"   Gusts: NA
Location:  41.68°N, 86.25°W
Report Text: KSBN 280354Z 25009KT 10SM OVC042 M05/M10 A3036 RMK AO2 SLP294 T10501100
Loading
Personal Weather Stations






























Interactive Weather Map New forecast layout! Learn more

10-Day Weather Forecast

Advertisements
Track Severe Weather on mobile